sensor_id;sensor_type;location;lat;lon;timestamp;P1;durP1;ratioP1;P2;durP2;ratioP2
48161;SDS011;33950;48.154;16.316;2022-10-31T00:02:07;35.22;;;16.52;;
48161;SDS011;33950;48.154;16.316;2022-10-31T00:04:55;39.60;;;18.70;;
48161;SDS011;33950;48.154;16.316;2022-10-31T00:07:41;33.10;;;15.40;;
48161;SDS011;33950;48.154;16.316;2022-10-31T00:10:27;28.77;;;14.63;;
48161;SDS011;33950;48.154;16.316;2022-10-31T00:13:13;21.08;;;11.35;;
48161;SDS011;33950;48.154;16.316;2022-10-31T00:16:00;21.48;;;12.40;;
48161;SDS011;33950;48.154;16.316;2022-10-31T00:18:47;21.05;;;11.50;;
48161;SDS011;33950;48.154;16.316;2022-10-31T00:21:36;21.95;;;11.85;;
48161;SDS011;33950;48.154;16.316;2022-10-31T00:24:22;18.48;;;10.63;;
48161;SDS011;33950;48.154;16.316;2022-10-31T00:27:08;21.83;;;12.73;;
48161;SDS011;33950;48.154;16.316;2022-10-31T00:29:54;22.95;;;12.13;;
48161;SDS011;33950;48.154;16.316;2022-10-31T00:32:40;22.23;;;12.23;;
48161;SDS011;33950;48.154;16.316;2022-10-31T00:35:26;22.73;;;12.25;;
48161;SDS011;33950;48.154;16.316;2022-10-31T00:38:14;23.08;;;12.40;;
48161;SDS011;33950;48.154;16.316;2022-10-31T00:41:00;18.83;;;10.75;;
48161;SDS011;33950;48.154;16.316;2022-10-31T00:43:46;22.27;;;12.18;;
48161;SDS011;33950;48.154;16.316;2022-10-31T00:46:32;19.63;;;11.80;;
48161;SDS011;33950;48.154;16.316;2022-10-31T00:49:18;18.92;;;11.07;;
48161;SDS011;33950;48.154;16.316;2022-10-31T00:52:04;18.63;;;11.68;;
48161;SDS011;33950;48.154;16.316;2022-10-31T00:54:51;20.73;;;11.07;;
48161;SDS011;33950;48.154;16.316;2022-10-31T00:57:38;23.88;;;12.50;;
48161;SDS011;33950;48.154;16.316;2022-10-31T01:00:24;19.85;;;11.75;;
48161;SDS011;33950;48.154;16.316;2022-10-31T01:03:10;20.48;;;11.73;;
48161;SDS011;33950;48.154;16.316;2022-10-31T01:05:57;24.58;;;12.18;;
48161;SDS011;33950;48.154;16.316;2022-10-31T01:08:44;24.85;;;12.60;;
48161;SDS011;33950;48.154;16.316;2022-10-31T01:11:33;24.13;;;12.65;;
48161;SDS011;33950;48.154;16.316;2022-10-31T01:14:20;18.27;;;10.82;;
48161;SDS011;33950;48.154;16.316;2022-10-31T01:17:06;19.88;;;10.32;;
48161;SDS011;33950;48.154;16.316;2022-10-31T01:19:52;22.85;;;11.55;;
48161;SDS011;33950;48.154;16.316;2022-10-31T01:22:38;18.45;;;9.73;;
48161;SDS011;33950;48.154;16.316;2022-10-31T01:25:24;19.50;;;10.38;;
48161;SDS011;33950;48.154;16.316;2022-10-31T01:28:11;19.02;;;10.13;;
48161;SDS011;33950;48.154;16.316;2022-10-31T01:30:59;18.75;;;10.00;;
48161;SDS011;33950;48.154;16.316;2022-10-31T01:33:47;21.38;;;9.57;;
48161;SDS011;33950;48.154;16.316;2022-10-31T01:36:33;15.60;;;8.02;;
48161;SDS011;33950;48.154;16.316;2022-10-31T01:39:21;17.20;;;9.35;;
48161;SDS011;33950;48.154;16.316;2022-10-31T01:42:09;15.65;;;8.82;;
48161;SDS011;33950;48.154;16.316;2022-10-31T01:45:02;17.65;;;8.48;;
48161;SDS011;33950;48.154;16.316;2022-10-31T01:47:50;15.05;;;8.43;;
48161;SDS011;33950;48.154;16.316;2022-10-31T01:50:36;14.38;;;8.27;;
48161;SDS011;33950;48.154;16.316;2022-10-31T01:53:24;13.35;;;8.60;;
48161;SDS011;33950;48.154;16.316;2022-10-31T01:56:10;19.23;;;8.95;;
48161;SDS011;33950;48.154;16.316;2022-10-31T01:58:57;15.52;;;7.68;;
48161;SDS011;33950;48.154;16.316;2022-10-31T02:01:47;18.50;;;8.98;;
48161;SDS011;33950;48.154;16.316;2022-10-31T02:04:35;17.88;;;8.77;;
48161;SDS011;33950;48.154;16.316;2022-10-31T02:07:23;15.00;;;8.55;;
48161;SDS011;33950;48.154;16.316;2022-10-31T02:10:12;17.23;;;8.32;;
48161;SDS011;33950;48.154;16.316;2022-10-31T02:13:00;15.52;;;7.55;;
48161;SDS011;33950;48.154;16.316;2022-10-31T02:15:49;13.40;;;7.45;;
48161;SDS011;33950;48.154;16.316;2022-10-31T02:18:39;11.48;;;7.47;;
48161;SDS011;33950;48.154;16.316;2022-10-31T02:21:26;11.38;;;6.75;;
48161;SDS011;33950;48.154;16.316;2022-10-31T02:24:26;11.98;;;7.40;;
48161;SDS011;33950;48.154;16.316;2022-10-31T02:27:40;10.82;;;7.03;;
48161;SDS011;33950;48.154;16.316;2022-10-31T02:33:32;11.82;;;7.70;;
48161;SDS011;33950;48.154;16.316;2022-10-31T02:36:28;12.60;;;6.72;;
48161;SDS011;33950;48.154;16.316;2022-10-31T02:39:22;14.30;;;6.47;;
48161;SDS011;33950;48.154;16.316;2022-10-31T02:42:13;10.18;;;6.78;;
48161;SDS011;33950;48.154;16.316;2022-10-31T02:45:05;10.95;;;6.75;;
48161;SDS011;33950;48.154;16.316;2022-10-31T02:47:56;7.97;;;6.30;;
48161;SDS011;33950;48.154;16.316;2022-10-31T02:50:49;8.10;;;5.50;;
48161;SDS011;33950;48.154;16.316;2022-10-31T02:53:39;9.02;;;6.53;;
48161;SDS011;33950;48.154;16.316;2022-10-31T02:56:25;8.82;;;6.18;;
48161;SDS011;33950;48.154;16.316;2022-10-31T02:59:11;7.95;;;6.13;;
48161;SDS011;33950;48.154;16.316;2022-10-31T03:02:09;11.40;;;5.60;;
48161;SDS011;33950;48.154;16.316;2022-10-31T03:05:12;12.15;;;6.05;;
48161;SDS011;33950;48.154;16.316;2022-10-31T03:08:08;8.27;;;5.20;;
48161;SDS011;33950;48.154;16.316;2022-10-31T03:10:59;10.40;;;5.25;;
48161;SDS011;33950;48.154;16.316;2022-10-31T03:13:48;7.53;;;5.10;;
48161;SDS011;33950;48.154;16.316;2022-10-31T03:16:38;10.18;;;5.05;;
48161;SDS011;33950;48.154;16.316;2022-10-31T03:19:28;7.72;;;4.43;;
48161;SDS011;33950;48.154;16.316;2022-10-31T03:22:19;7.40;;;5.00;;
48161;SDS011;33950;48.154;16.316;2022-10-31T03:25:09;8.65;;;5.20;;
48161;SDS011;33950;48.154;16.316;2022-10-31T03:27:57;7.68;;;4.97;;
48161;SDS011;33950;48.154;16.316;2022-10-31T03:30:46;6.85;;;4.38;;
48161;SDS011;33950;48.154;16.316;2022-10-31T03:33:35;7.63;;;5.18;;
48161;SDS011;33950;48.154;16.316;2022-10-31T03:36:23;6.25;;;4.47;;
48161;SDS011;33950;48.154;16.316;2022-10-31T03:39:12;8.02;;;4.60;;
48161;SDS011;33950;48.154;16.316;2022-10-31T03:42:02;8.15;;;4.65;;
48161;SDS011;33950;48.154;16.316;2022-10-31T03:44:53;8.82;;;4.68;;
48161;SDS011;33950;48.154;16.316;2022-10-31T03:47:43;7.50;;;4.93;;
48161;SDS011;33950;48.154;16.316;2022-10-31T03:50:31;6.75;;;4.15;;
48161;SDS011;33950;48.154;16.316;2022-10-31T03:53:24;7.05;;;5.05;;
48161;SDS011;33950;48.154;16.316;2022-10-31T03:56:16;7.65;;;4.57;;
48161;SDS011;33950;48.154;16.316;2022-10-31T03:59:09;7.50;;;4.80;;
48161;SDS011;33950;48.154;16.316;2022-10-31T04:02:01;10.15;;;4.68;;
48161;SDS011;33950;48.154;16.316;2022-10-31T04:04:50;12.73;;;5.30;;
48161;SDS011;33950;48.154;16.316;2022-10-31T04:07:38;7.32;;;4.82;;
48161;SDS011;33950;48.154;16.316;2022-10-31T04:10:27;7.57;;;4.68;;
48161;SDS011;33950;48.154;16.316;2022-10-31T04:13:17;7.75;;;4.78;;
48161;SDS011;33950;48.154;16.316;2022-10-31T04:16:09;8.20;;;4.70;;
48161;SDS011;33950;48.154;16.316;2022-10-31T04:18:56;10.07;;;4.88;;
48161;SDS011;33950;48.154;16.316;2022-10-31T04:21:42;6.72;;;4.43;;
48161;SDS011;33950;48.154;16.316;2022-10-31T04:24:28;7.32;;;4.82;;
48161;SDS011;33950;48.154;16.316;2022-10-31T04:27:15;5.72;;;4.20;;
48161;SDS011;33950;48.154;16.316;2022-10-31T04:30:01;10.32;;;4.80;;
48161;SDS011;33950;48.154;16.316;2022-10-31T04:32:48;8.20;;;4.38;;
48161;SDS011;33950;48.154;16.316;2022-10-31T04:35:34;6.85;;;4.70;;
48161;SDS011;33950;48.154;16.316;2022-10-31T04:38:20;5.93;;;4.05;;
48161;SDS011;33950;48.154;16.316;2022-10-31T04:41:07;7.18;;;4.07;;
48161;SDS011;33950;48.154;16.316;2022-10-31T04:43:53;5.78;;;4.10;;
48161;SDS011;33950;48.154;16.316;2022-10-31T04:46:39;6.38;;;3.72;;
48161;SDS011;33950;48.154;16.316;2022-10-31T04:49:27;6.68;;;3.72;;
48161;SDS011;33950;48.154;16.316;2022-10-31T04:52:13;4.82;;;3.28;;
48161;SDS011;33950;48.154;16.316;2022-10-31T04:54:59;4.15;;;3.15;;
48161;SDS011;33950;48.154;16.316;2022-10-31T04:57:45;5.78;;;3.90;;
48161;SDS011;33950;48.154;16.316;2022-10-31T05:00:32;5.30;;;3.55;;
48161;SDS011;33950;48.154;16.316;2022-10-31T05:03:19;5.13;;;4.15;;
48161;SDS011;33950;48.154;16.316;2022-10-31T05:06:06;9.45;;;4.60;;
48161;SDS011;33950;48.154;16.316;2022-10-31T05:08:53;7.15;;;3.80;;
48161;SDS011;33950;48.154;16.316;2022-10-31T05:11:39;6.22;;;4.20;;
48161;SDS011;33950;48.154;16.316;2022-10-31T05:14:25;6.22;;;4.20;;
48161;SDS011;33950;48.154;16.316;2022-10-31T05:17:11;10.10;;;4.80;;
48161;SDS011;33950;48.154;16.316;2022-10-31T05:19:57;6.07;;;4.18;;
48161;SDS011;33950;48.154;16.316;2022-10-31T05:22:45;7.95;;;4.57;;
48161;SDS011;33950;48.154;16.316;2022-10-31T05:25:33;10.40;;;4.60;;
48161;SDS011;33950;48.154;16.316;2022-10-31T05:28:19;7.35;;;3.25;;
48161;SDS011;33950;48.154;16.316;2022-10-31T05:31:05;7.47;;;4.20;;
48161;SDS011;33950;48.154;16.316;2022-10-31T05:33:51;7.97;;;4.70;;
48161;SDS011;33950;48.154;16.316;2022-10-31T05:36:37;6.43;;;4.32;;
48161;SDS011;33950;48.154;16.316;2022-10-31T05:39:25;7.07;;;4.68;;
48161;SDS011;33950;48.154;16.316;2022-10-31T05:42:11;7.75;;;4.90;;
48161;SDS011;33950;48.154;16.316;2022-10-31T05:44:57;9.68;;;4.97;;
48161;SDS011;33950;48.154;16.316;2022-10-31T05:47:49;9.02;;;5.43;;
48161;SDS011;33950;48.154;16.316;2022-10-31T05:50:36;15.07;;;5.53;;
48161;SDS011;33950;48.154;16.316;2022-10-31T05:53:22;8.75;;;4.95;;
48161;SDS011;33950;48.154;16.316;2022-10-31T05:56:09;8.00;;;5.00;;
48161;SDS011;33950;48.154;16.316;2022-10-31T05:58:55;6.07;;;4.22;;
48161;SDS011;33950;48.154;16.316;2022-10-31T06:01:42;13.80;;;5.05;;
48161;SDS011;33950;48.154;16.316;2022-10-31T06:04:28;13.55;;;5.10;;
48161;SDS011;33950;48.154;16.316;2022-10-31T06:07:14;9.90;;;5.35;;
48161;SDS011;33950;48.154;16.316;2022-10-31T06:10:00;11.35;;;5.22;;
48161;SDS011;33950;48.154;16.316;2022-10-31T06:12:49;13.43;;;5.55;;
48161;SDS011;33950;48.154;16.316;2022-10-31T06:15:35;11.73;;;5.72;;
48161;SDS011;33950;48.154;16.316;2022-10-31T06:18:21;28.50;;;5.78;;
48161;SDS011;33950;48.154;16.316;2022-10-31T06:21:07;15.82;;;6.55;;
48161;SDS011;33950;48.154;16.316;2022-10-31T06:23:53;21.67;;;6.03;;
48161;SDS011;33950;48.154;16.316;2022-10-31T06:26:40;40.65;;;7.45;;
48161;SDS011;33950;48.154;16.316;2022-10-31T06:29:27;13.45;;;6.57;;
48161;SDS011;33950;48.154;16.316;2022-10-31T06:32:14;14.82;;;6.65;;
48161;SDS011;33950;48.154;16.316;2022-10-31T06:35:01;16.35;;;6.22;;
48161;SDS011;33950;48.154;16.316;2022-10-31T06:37:50;40.85;;;7.40;;
48161;SDS011;33950;48.154;16.316;2022-10-31T06:40:37;10.95;;;5.88;;
48161;SDS011;33950;48.154;16.316;2022-10-31T06:43:23;13.65;;;5.57;;
48161;SDS011;33950;48.154;16.316;2022-10-31T06:46:11;26.35;;;6.43;;
48161;SDS011;33950;48.154;16.316;2022-10-31T06:48:57;21.92;;;6.80;;
48161;SDS011;33950;48.154;16.316;2022-10-31T06:51:46;26.05;;;7.03;;
48161;SDS011;33950;48.154;16.316;2022-10-31T06:54:32;14.73;;;6.38;;
48161;SDS011;33950;48.154;16.316;2022-10-31T06:57:18;25.23;;;6.80;;
48161;SDS011;33950;48.154;16.316;2022-10-31T07:00:05;14.85;;;6.47;;
48161;SDS011;33950;48.154;16.316;2022-10-31T07:02:54;19.42;;;7.25;;
48161;SDS011;33950;48.154;16.316;2022-10-31T07:05:41;20.30;;;7.50;;
48161;SDS011;33950;48.154;16.316;2022-10-31T07:08:28;14.30;;;7.47;;
48161;SDS011;33950;48.154;16.316;2022-10-31T07:11:14;13.65;;;6.68;;
48161;SDS011;33950;48.154;16.316;2022-10-31T07:14:00;30.25;;;7.22;;
48161;SDS011;33950;48.154;16.316;2022-10-31T07:16:47;32.83;;;7.65;;
48161;SDS011;33950;48.154;16.316;2022-10-31T07:19:36;15.02;;;7.80;;
48161;SDS011;33950;48.154;16.316;2022-10-31T07:22:22;13.73;;;7.32;;
48161;SDS011;33950;48.154;16.316;2022-10-31T07:25:08;20.02;;;7.85;;
48161;SDS011;33950;48.154;16.316;2022-10-31T07:27:55;30.98;;;8.35;;
48161;SDS011;33950;48.154;16.316;2022-10-31T07:30:41;23.00;;;8.40;;
48161;SDS011;33950;48.154;16.316;2022-10-31T07:33:27;18.80;;;9.63;;
48161;SDS011;33950;48.154;16.316;2022-10-31T07:36:15;27.13;;;9.85;;
48161;SDS011;33950;48.154;16.316;2022-10-31T07:39:01;40.90;;;10.20;;
48161;SDS011;33950;48.154;16.316;2022-10-31T07:41:47;27.65;;;9.88;;
48161;SDS011;33950;48.154;16.316;2022-10-31T07:44:33;29.70;;;11.40;;
48161;SDS011;33950;48.154;16.316;2022-10-31T07:47:19;22.70;;;11.02;;
48161;SDS011;33950;48.154;16.316;2022-10-31T07:50:06;22.13;;;9.45;;
48161;SDS011;33950;48.154;16.316;2022-10-31T07:53:01;19.65;;;9.63;;
48161;SDS011;33950;48.154;16.316;2022-10-31T07:55:48;18.45;;;8.65;;
48161;SDS011;33950;48.154;16.316;2022-10-31T07:58:34;26.48;;;9.88;;
48161;SDS011;33950;48.154;16.316;2022-10-31T08:01:21;18.55;;;9.32;;
48161;SDS011;33950;48.154;16.316;2022-10-31T08:04:07;21.92;;;9.30;;
48161;SDS011;33950;48.154;16.316;2022-10-31T08:06:53;21.80;;;9.52;;
48161;SDS011;33950;48.154;16.316;2022-10-31T08:09:41;23.63;;;10.05;;
48161;SDS011;33950;48.154;16.316;2022-10-31T08:12:27;23.52;;;10.27;;
48161;SDS011;33950;48.154;16.316;2022-10-31T08:15:13;21.08;;;10.10;;
48161;SDS011;33950;48.154;16.316;2022-10-31T08:17:59;22.10;;;11.15;;
48161;SDS011;33950;48.154;16.316;2022-10-31T08:20:46;17.55;;;9.68;;
48161;SDS011;33950;48.154;16.316;2022-10-31T08:23:32;32.53;;;11.25;;
48161;SDS011;33950;48.154;16.316;2022-10-31T08:26:19;31.92;;;11.32;;
48161;SDS011;33950;48.154;16.316;2022-10-31T08:29:05;27.73;;;12.23;;
48161;SDS011;33950;48.154;16.316;2022-10-31T08:31:51;25.73;;;12.30;;
48161;SDS011;33950;48.154;16.316;2022-10-31T08:34:37;23.60;;;10.88;;
48161;SDS011;33950;48.154;16.316;2022-10-31T08:37:23;30.58;;;11.40;;
48161;SDS011;33950;48.154;16.316;2022-10-31T08:40:10;30.33;;;12.98;;
48161;SDS011;33950;48.154;16.316;2022-10-31T08:43:00;28.25;;;13.40;;
48161;SDS011;33950;48.154;16.316;2022-10-31T08:45:48;34.25;;;12.88;;
48161;SDS011;33950;48.154;16.316;2022-10-31T08:48:35;29.98;;;12.68;;
48161;SDS011;33950;48.154;16.316;2022-10-31T08:51:21;30.52;;;12.95;;
48161;SDS011;33950;48.154;16.316;2022-10-31T08:54:07;27.45;;;13.23;;
48161;SDS011;33950;48.154;16.316;2022-10-31T08:56:53;37.45;;;14.23;;
48161;SDS011;33950;48.154;16.316;2022-10-31T08:59:42;32.83;;;13.90;;
48161;SDS011;33950;48.154;16.316;2022-10-31T09:02:28;34.20;;;13.23;;
48161;SDS011;33950;48.154;16.316;2022-10-31T09:05:14;40.20;;;13.95;;
48161;SDS011;33950;48.154;16.316;2022-10-31T09:08:01;29.30;;;11.98;;
48161;SDS011;33950;48.154;16.316;2022-10-31T09:10:48;26.15;;;12.73;;
48161;SDS011;33950;48.154;16.316;2022-10-31T09:13:35;29.48;;;12.57;;
48161;SDS011;33950;48.154;16.316;2022-10-31T09:16:22;30.17;;;14.02;;
48161;SDS011;33950;48.154;16.316;2022-10-31T09:19:08;33.25;;;14.18;;
48161;SDS011;33950;48.154;16.316;2022-10-31T09:21:54;36.80;;;15.80;;
48161;SDS011;33950;48.154;16.316;2022-10-31T09:24:40;31.52;;;13.77;;
48161;SDS011;33950;48.154;16.316;2022-10-31T09:27:26;30.10;;;13.70;;
48161;SDS011;33950;48.154;16.316;2022-10-31T09:30:12;31.83;;;13.45;;
48161;SDS011;33950;48.154;16.316;2022-10-31T09:33:00;35.55;;;14.52;;
48161;SDS011;33950;48.154;16.316;2022-10-31T09:35:48;26.60;;;12.02;;
48161;SDS011;33950;48.154;16.316;2022-10-31T09:38:34;33.25;;;13.75;;
48161;SDS011;33950;48.154;16.316;2022-10-31T09:41:22;39.53;;;15.65;;
48161;SDS011;33950;48.154;16.316;2022-10-31T09:44:14;35.72;;;14.77;;
48161;SDS011;33950;48.154;16.316;2022-10-31T09:47:10;38.33;;;15.27;;
48161;SDS011;33950;48.154;16.316;2022-10-31T09:50:09;29.58;;;14.27;;
48161;SDS011;33950;48.154;16.316;2022-10-31T09:53:02;35.75;;;14.82;;
48161;SDS011;33950;48.154;16.316;2022-10-31T09:55:53;35.63;;;14.75;;
48161;SDS011;33950;48.154;16.316;2022-10-31T09:58:41;36.72;;;15.20;;
48161;SDS011;33950;48.154;16.316;2022-10-31T10:01:32;26.45;;;12.90;;
48161;SDS011;33950;48.154;16.316;2022-10-31T10:04:29;32.50;;;14.50;;
48161;SDS011;33950;48.154;16.316;2022-10-31T10:07:22;33.05;;;13.70;;
48161;SDS011;33950;48.154;16.316;2022-10-31T10:10:16;29.52;;;14.35;;
48161;SDS011;33950;48.154;16.316;2022-10-31T10:13:13;33.20;;;15.68;;
48161;SDS011;33950;48.154;16.316;2022-10-31T10:16:15;33.03;;;16.13;;
48161;SDS011;33950;48.154;16.316;2022-10-31T10:19:18;32.13;;;15.57;;
48161;SDS011;33950;48.154;16.316;2022-10-31T10:22:15;33.22;;;15.30;;
48161;SDS011;33950;48.154;16.316;2022-10-31T10:25:13;35.00;;;14.85;;
48161;SDS011;33950;48.154;16.316;2022-10-31T10:28:03;36.40;;;16.08;;
48161;SDS011;33950;48.154;16.316;2022-10-31T10:31:00;39.95;;;15.55;;
48161;SDS011;33950;48.154;16.316;2022-10-31T10:33:53;46.80;;;17.10;;
48161;SDS011;33950;48.154;16.316;2022-10-31T10:36:47;47.15;;;16.85;;
48161;SDS011;33950;48.154;16.316;2022-10-31T10:39:38;45.80;;;20.10;;
48161;SDS011;33950;48.154;16.316;2022-10-31T10:42:30;45.58;;;21.92;;
48161;SDS011;33950;48.154;16.316;2022-10-31T10:45:34;45.08;;;20.45;;
48161;SDS011;33950;48.154;16.316;2022-10-31T10:48:42;44.50;;;21.40;;
48161;SDS011;33950;48.154;16.316;2022-10-31T10:51:32;49.58;;;22.50;;
48161;SDS011;33950;48.154;16.316;2022-10-31T10:54:42;49.10;;;20.98;;
48161;SDS011;33950;48.154;16.316;2022-10-31T10:57:38;47.78;;;21.83;;
48161;SDS011;33950;48.154;16.316;2022-10-31T11:00:40;53.72;;;23.98;;
48161;SDS011;33950;48.154;16.316;2022-10-31T11:03:27;63.25;;;25.67;;
48161;SDS011;33950;48.154;16.316;2022-10-31T11:06:17;57.55;;;26.90;;
48161;SDS011;33950;48.154;16.316;2022-10-31T11:09:10;70.93;;;26.77;;
48161;SDS011;33950;48.154;16.316;2022-10-31T11:11:56;62.53;;;27.05;;
48161;SDS011;33950;48.154;16.316;2022-10-31T11:14:46;63.83;;;27.55;;
48161;SDS011;33950;48.154;16.316;2022-10-31T11:17:35;67.32;;;27.08;;
48161;SDS011;33950;48.154;16.316;2022-10-31T11:20:26;67.45;;;29.55;;
48161;SDS011;33950;48.154;16.316;2022-10-31T11:26:03;54.05;;;25.73;;
48161;SDS011;33950;48.154;16.316;2022-10-31T11:29:04;58.58;;;26.35;;
48161;SDS011;33950;48.154;16.316;2022-10-31T11:31:55;63.97;;;30.58;;
48161;SDS011;33950;48.154;16.316;2022-10-31T11:34:42;56.58;;;26.42;;
48161;SDS011;33950;48.154;16.316;2022-10-31T11:37:31;51.83;;;25.48;;
48161;SDS011;33950;48.154;16.316;2022-10-31T11:43:12;56.72;;;25.77;;
48161;SDS011;33950;48.154;16.316;2022-10-31T11:46:08;67.53;;;26.90;;
48161;SDS011;33950;48.154;16.316;2022-10-31T11:48:56;59.20;;;28.58;;
48161;SDS011;33950;48.154;16.316;2022-10-31T11:51:42;57.97;;;28.38;;
48161;SDS011;33950;48.154;16.316;2022-10-31T11:54:36;67.53;;;31.38;;
48161;SDS011;33950;48.154;16.316;2022-10-31T11:57:28;67.45;;;30.48;;
48161;SDS011;33950;48.154;16.316;2022-10-31T12:00:20;62.90;;;30.17;;
48161;SDS011;33950;48.154;16.316;2022-10-31T12:03:13;63.10;;;29.88;;
48161;SDS011;33950;48.154;16.316;2022-10-31T12:06:14;66.22;;;30.23;;
48161;SDS011;33950;48.154;16.316;2022-10-31T12:09:10;61.63;;;30.65;;
48161;SDS011;33950;48.154;16.316;2022-10-31T12:15:36;74.60;;;33.22;;
48161;SDS011;33950;48.154;16.316;2022-10-31T12:18:34;64.88;;;29.67;;
48161;SDS011;33950;48.154;16.316;2022-10-31T12:21:34;66.28;;;31.10;;
48161;SDS011;33950;48.154;16.316;2022-10-31T12:28:10;65.55;;;30.35;;
48161;SDS011;33950;48.154;16.316;2022-10-31T12:31:19;66.03;;;30.80;;
48161;SDS011;33950;48.154;16.316;2022-10-31T12:34:31;68.75;;;30.98;;
48161;SDS011;33950;48.154;16.316;2022-10-31T12:37:45;69.53;;;32.50;;
48161;SDS011;33950;48.154;16.316;2022-10-31T12:40:47;67.35;;;31.73;;
48161;SDS011;33950;48.154;16.316;2022-10-31T12:43:43;68.53;;;32.13;;
48161;SDS011;33950;48.154;16.316;2022-10-31T12:46:42;70.85;;;33.33;;
48161;SDS011;33950;48.154;16.316;2022-10-31T12:52:39;80.22;;;33.33;;
48161;SDS011;33950;48.154;16.316;2022-10-31T12:55:40;70.43;;;33.70;;
48161;SDS011;33950;48.154;16.316;2022-10-31T12:58:34;72.53;;;35.45;;
48161;SDS011;33950;48.154;16.316;2022-10-31T13:01:26;77.55;;;35.80;;
48161;SDS011;33950;48.154;16.316;2022-10-31T13:04:16;82.28;;;36.08;;
48161;SDS011;33950;48.154;16.316;2022-10-31T13:07:09;85.80;;;36.58;;
48161;SDS011;33950;48.154;16.316;2022-10-31T13:10:01;78.67;;;37.77;;
48161;SDS011;33950;48.154;16.316;2022-10-31T13:12:49;83.75;;;36.13;;
48161;SDS011;33950;48.154;16.316;2022-10-31T13:15:44;82.70;;;38.40;;
48161;SDS011;33950;48.154;16.316;2022-10-31T13:18:39;85.43;;;36.13;;
48161;SDS011;33950;48.154;16.316;2022-10-31T13:21:30;91.82;;;38.58;;
48161;SDS011;33950;48.154;16.316;2022-10-31T13:24:22;85.38;;;38.15;;
48161;SDS011;33950;48.154;16.316;2022-10-31T13:27:14;83.60;;;39.05;;
48161;SDS011;33950;48.154;16.316;2022-10-31T13:30:12;85.22;;;37.78;;
48161;SDS011;33950;48.154;16.316;2022-10-31T13:33:01;91.55;;;39.42;;
48161;SDS011;33950;48.154;16.316;2022-10-31T13:36:06;86.85;;;38.25;;
48161;SDS011;33950;48.154;16.316;2022-10-31T13:39:13;87.22;;;38.45;;
48161;SDS011;33950;48.154;16.316;2022-10-31T13:42:10;86.35;;;37.17;;
48161;SDS011;33950;48.154;16.316;2022-10-31T13:45:11;84.82;;;36.45;;
48161;SDS011;33950;48.154;16.316;2022-10-31T13:47:59;82.18;;;36.35;;
48161;SDS011;33950;48.154;16.316;2022-10-31T13:51:03;83.72;;;35.58;;
48161;SDS011;33950;48.154;16.316;2022-10-31T13:53:56;84.75;;;38.53;;
48161;SDS011;33950;48.154;16.316;2022-10-31T13:56:47;82.85;;;36.08;;
48161;SDS011;33950;48.154;16.316;2022-10-31T13:59:36;89.88;;;36.70;;
48161;SDS011;33950;48.154;16.316;2022-10-31T14:02:25;77.50;;;37.03;;
48161;SDS011;33950;48.154;16.316;2022-10-31T14:05:19;94.32;;;39.97;;
48161;SDS011;33950;48.154;16.316;2022-10-31T14:08:15;93.25;;;39.80;;
48161;SDS011;33950;48.154;16.316;2022-10-31T14:11:05;83.63;;;37.72;;
48161;SDS011;33950;48.154;16.316;2022-10-31T14:13:53;84.72;;;37.88;;
48161;SDS011;33950;48.154;16.316;2022-10-31T14:16:42;96.03;;;41.03;;
48161;SDS011;33950;48.154;16.316;2022-10-31T14:19:30;85.25;;;40.00;;
48161;SDS011;33950;48.154;16.316;2022-10-31T14:22:19;97.30;;;42.80;;
48161;SDS011;33950;48.154;16.316;2022-10-31T14:28:20;90.57;;;42.20;;
48161;SDS011;33950;48.154;16.316;2022-10-31T14:31:24;98.72;;;42.25;;
48161;SDS011;33950;48.154;16.316;2022-10-31T14:34:23;83.20;;;39.17;;
48161;SDS011;33950;48.154;16.316;2022-10-31T14:37:17;88.30;;;39.30;;
48161;SDS011;33950;48.154;16.316;2022-10-31T14:40:27;83.57;;;37.63;;
48161;SDS011;33950;48.154;16.316;2022-10-31T14:43:33;78.65;;;36.17;;
48161;SDS011;33950;48.154;16.316;2022-10-31T14:46:33;79.65;;;36.10;;
48161;SDS011;33950;48.154;16.316;2022-10-31T14:49:34;78.40;;;37.03;;
48161;SDS011;33950;48.154;16.316;2022-10-31T14:52:34;78.95;;;35.60;;
48161;SDS011;33950;48.154;16.316;2022-10-31T14:55:22;72.45;;;32.47;;
48161;SDS011;33950;48.154;16.316;2022-10-31T14:58:13;74.75;;;33.58;;
48161;SDS011;33950;48.154;16.316;2022-10-31T15:01:03;68.68;;;31.55;;
48161;SDS011;33950;48.154;16.316;2022-10-31T15:03:50;69.38;;;31.33;;
48161;SDS011;33950;48.154;16.316;2022-10-31T15:06:40;73.35;;;32.33;;
48161;SDS011;33950;48.154;16.316;2022-10-31T15:09:28;64.70;;;29.63;;
48161;SDS011;33950;48.154;16.316;2022-10-31T15:12:23;66.65;;;30.15;;
48161;SDS011;33950;48.154;16.316;2022-10-31T15:15:11;80.03;;;33.95;;
48161;SDS011;33950;48.154;16.316;2022-10-31T15:17:58;91.10;;;37.75;;
48161;SDS011;33950;48.154;16.316;2022-10-31T15:20:46;90.55;;;36.80;;
48161;SDS011;33950;48.154;16.316;2022-10-31T15:23:33;98.28;;;39.97;;
48161;SDS011;33950;48.154;16.316;2022-10-31T15:26:21;89.88;;;38.92;;
48161;SDS011;33950;48.154;16.316;2022-10-31T15:29:11;81.60;;;36.55;;
48161;SDS011;33950;48.154;16.316;2022-10-31T15:31:59;86.63;;;35.97;;
48161;SDS011;33950;48.154;16.316;2022-10-31T15:34:46;88.20;;;37.38;;
48161;SDS011;33950;48.154;16.316;2022-10-31T15:37:32;83.28;;;35.47;;
48161;SDS011;33950;48.154;16.316;2022-10-31T15:40:21;95.65;;;37.97;;
48161;SDS011;33950;48.154;16.316;2022-10-31T15:43:10;94.47;;;39.42;;
48161;SDS011;33950;48.154;16.316;2022-10-31T15:46:02;100.03;;;41.08;;
48161;SDS011;33950;48.154;16.316;2022-10-31T15:48:49;104.38;;;42.70;;
48161;SDS011;33950;48.154;16.316;2022-10-31T15:51:35;107.15;;;43.78;;
48161;SDS011;33950;48.154;16.316;2022-10-31T15:54:23;114.15;;;45.15;;
48161;SDS011;33950;48.154;16.316;2022-10-31T15:57:11;101.55;;;41.95;;
48161;SDS011;33950;48.154;16.316;2022-10-31T15:59:57;104.20;;;41.65;;
48161;SDS011;33950;48.154;16.316;2022-10-31T16:02:44;102.72;;;41.15;;
48161;SDS011;33950;48.154;16.316;2022-10-31T16:05:33;93.07;;;37.05;;
48161;SDS011;33950;48.154;16.316;2022-10-31T16:08:25;84.20;;;33.58;;
48161;SDS011;33950;48.154;16.316;2022-10-31T16:11:33;72.20;;;29.10;;
48161;SDS011;33950;48.154;16.316;2022-10-31T16:14:23;67.90;;;28.80;;
48161;SDS011;33950;48.154;16.316;2022-10-31T16:17:11;60.63;;;27.77;;
48161;SDS011;33950;48.154;16.316;2022-10-31T16:19:59;55.33;;;26.95;;
48161;SDS011;33950;48.154;16.316;2022-10-31T16:22:48;61.28;;;26.40;;
48161;SDS011;33950;48.154;16.316;2022-10-31T16:25:36;56.13;;;26.42;;
48161;SDS011;33950;48.154;16.316;2022-10-31T16:28:23;69.53;;;28.10;;
48161;SDS011;33950;48.154;16.316;2022-10-31T16:31:13;71.30;;;30.75;;
48161;SDS011;33950;48.154;16.316;2022-10-31T16:34:01;61.17;;;27.05;;
48161;SDS011;33950;48.154;16.316;2022-10-31T16:36:49;67.25;;;28.23;;
48161;SDS011;33950;48.154;16.316;2022-10-31T16:39:35;71.38;;;28.00;;
48161;SDS011;33950;48.154;16.316;2022-10-31T16:42:21;79.00;;;29.42;;
48161;SDS011;33950;48.154;16.316;2022-10-31T16:45:12;67.88;;;26.45;;
48161;SDS011;33950;48.154;16.316;2022-10-31T16:48:04;65.05;;;27.48;;
48161;SDS011;33950;48.154;16.316;2022-10-31T16:50:51;68.70;;;28.77;;